Racecast

Christina Chew

Davis (CA) · 12 · SFLCA D1SJS D1YOLO · Compare head to head

Athlete rating 114.6 2007 XC season
Best race 120.8 TF
Races 50
Seasons 5 2005 — 2009

RankedNation #11768·CA #2033·CA D1 #992·SJS #265·SJS D1 #203·SFL #77·Team #47 ?

Speed rating — all races

Cross Country

XC speed rating

2007 XC 111.8

Davis (CA) · Grade 11

Date Meet Event Result Place Rating Difficulty PR/SR Flags
2007-11-03 Calaveras County Fairgrounds 4828m 21:59 13th · 9th on team 116.7 +0.065 ★PR ★CR SR CSR RSR
2007-10-13 Willow Hills Reservoir Course 4000m 19:25.6 1st · 1st on team 111.5 +0.104 ★PR ★CR SR CSR RSR
2007-09-15 Muller Vineyards 3218m 15:02 9th · 5th on team 107.3 +0.024 ★PR ★CR SR CSR RSR

2006 XC 117.5

Davis (CA) · Grade 10

Date Meet Event Result Place Rating Difficulty PR/SR Flags
2006-10-07 Woodward Park 5000m 21:33 65th · 5th on team 118.2 +0.013 ★PR ★CR R SR CSR RSR
2006-09-30 Stanford University Golf Course 3000m 12:28 69th · 6th on team 116.9 +0.022 ★PR ★CR R SR CSR RSR

2005 XC 111.9

Davis (CA) · Grade 9

Date Meet Event Result Place Rating Difficulty PR/SR Flags
2005-10-15 Willow Hills Reservoir Course 5000m 23:25.5 62nd · 2nd on team 111.9 +0.045 PR ★CR R SR CSR RSR

Track & Field

TF speed rating

2009 TF 114.4

Davis (CA) · Grade 12

Date Meet Event Result Place Rating Difficulty PR/SR Flags
2009-05-16 Race results → 3200m 12:21.3 8th · 7th on team 119.9
2009-04-29 Race results → 800m 2:52.8 2nd · 2nd on team 105.3
2009-04-29 Race results → 1600m 6:15.6 5th · 5th on team 109.2
2009-04-24 West Valley/Chico Invitational 3200m 12:20.22 17th · 6th on team 120.0 -0.033 ★PR SR
2009-04-24 West Valley/Chico Invitational 1600m 5:39.23 24th · 8th on team 120.8 -0.033 ★PR ★R SR RSR
2009-04-18 Depth Charge 3200m 12:26.1 1st · 1st on team 120.8 -0.020 PR R SR RSR
2009-04-18 2009 Depth Charge 3200m 12:26.1 2nd · 1st on team 120.8 -0.020
2009-04-15 Race results → 1mile 6:11.3 5th · 5th on team 111.2
2009-04-15 Race results → 800m 2:55.5 3rd · 3rd on team 103.7
2009-03-28 Thunder Invitational 1500m 5:20.27 7th · 2nd on team 120.1 -0.024 ★PR R SR RSR
2009-03-28 Thunder Invitational 800m 2:49.8 20th · 3rd on team 108.1 -0.024
2009-03-25 Race results → 800m 2:39.5 3rd · 3rd on team 114.1 ★PR SR
2009-03-18 DVC League Meet Elk Grove vs Davis 2miles 14:14.2 8th · 7th on team 105.5 -0.026 ★PR SR
2009-03-18 DVC League Meet Elk Grove vs Davis 1mile 5:47.5 4th · 3rd on team 119.2 -0.026 ★PR R SR RSR
2009-03-14 Race results → 3200m 12:33.22 10th · 3rd on team 118.0 PR SR RSR
2009-03-07 Race results → 800m 2:39.52 20th · 4th on team 114.1 PR SR RSR

2008 TF 106.7

Davis (CA) · Grade 11

Date Meet Event Result Place Rating Difficulty PR/SR Flags
2008-05-10 Delta Valley Conference League Meet 1600m 6:05.49 12th · 10th on team 113.5 -0.020
2008-05-10 Delta Valley Conference League Meet 800m 2:51.37 7th · 5th on team 107.3 -0.020 SR
2008-04-05 Thunder Invitational 1500m 5:28.56 11th · 2nd on team 117.2 PR SR RSR
2008-03-08 Bob King/Don Gilbert Invitational 1600m 6:03.88 13th · 3rd on team 113.4 -0.027 SR RSR
2008-03-05 Race results → 800m 3:06.8 3rd · 3rd on team 97.4 SR RSR
2008-03-05 Race results → 1mile 6:59.1 5th · 5th on team 98.6 SR RSR
2008-03-05 Race results → 2miles 15:02 4th · 4th on team 99.7 SR RSR

2006 TF 108.1

Davis (CA) · Grade 9

Date Meet Event Result Place Rating Difficulty PR/SR Flags
2006-05-12 Mel Finals 1600m 6:26.84 11th · 10th on team 107.9 -0.010
2006-05-12 Mel Finals 800m 2:56.68 10th · 8th on team 104.5 -0.010
2006-05-10 Mel Trials 800m 2:43.71 10th · 8th on team 112.8 -0.010
2006-05-03 MEL Davis vs Armijo 1mile 6:32.6 9th · 9th on team 105.5 -0.026
2006-04-26 Race results → 800m 3:01.6 7th · 7th on team 99.4
2006-04-26 Race results → 1mile 6:36.9 7th · 7th on team 103.4
2006-04-21 Race results → 800m 2:41.9 30th · 2nd on team 111.5 PR SR
2006-04-21 Race results → 1600m 5:57.33 46th · 7th on team 114.1 PR SR
2006-04-19 Race results → 1600m 6:08.5 8th · 7th on team 110.7
2006-04-19 Race results → 3200m 14:47.6 7th · 7th on team 100.6
2006-04-19 Race results → 800m 2:43.76 7th · 5th on team 110.3 PR SR
2006-04-05 MEL Davis vs Vintage 1600m 6:14.1 6th · 6th on team 112.2 -0.004
2006-04-05 MEL Davis vs Vintage 800m 2:45 3rd · 3rd on team 112.6 -0.004 PR SR
2006-03-22 Race results → 800m 2:49 3rd · 3rd on team 106.8 PR SR
2006-03-22 Race results → 1mile 6:33 7th · 7th on team 104.5
2006-03-22 Race results → 2miles 14:24.4 6th · 6th on team 103.9 PR SR
2006-03-15 MEL Davis vs Vacaville 800m 2:50.8 4th · 4th on team 112.0 +0.026 PR SR
2006-03-15 MEL Davis vs Vacaville 2miles 15:26.3 6th · 6th on team 102.7 +0.026 PR SR
2006-03-15 MEL Davis vs Vacaville 1mile 6:13.7 5th · 5th on team 116.4 +0.026 PR R SR RSR
2006-03-11 King Gilbert Invitational 3200m 13:55.9 7th · 5th on team 106.9 -0.027 PR SR RSR
2006-03-11 King Gilbert Invitational 1600m 6:05.54 11th · 9th on team 112.0 -0.027 PR R SR RSR